• Join FlightAware (Why Join?)
  • Login
  • US Flag 
03:51PM EST


 

Airport Tracker/Info


-or-


 

Live Flight TrackerFlight Track Log ✈ JBU1083 ✈ 24-Oct-2013 ✈ KJFK - KMCO

Flight Track Log - Related Links

Times and Time Zones

All times are in EDT time to prevent confusion due to time zone crossing. See the JBU1083 flight status page for this flight to view local times or setup timezone preferences in your user account.

Time Position Orientation Groundspeed Altitude Reporting Facility
EDT Latitude Longitude Course Direction KTS MPH feet Rate Location/Type
08:40PM 40.6333 -73.8500 226° Southwest 169 194 2,100  Level New York TRACON
08:41PM 40.6000 -73.9000 229° Southwest 246 283 3,900 2,460 Climbing New York TRACON
08:42PM 40.5333 -73.9667 217° Southwest 271 312 7,100 2,640 Climbing New York TRACON
08:44PM 40.2079 -74.0941 218° Southwest  Level Estimated
08:44PM 40.4039 -74.0361 202° Southwest 300 345 11,300  Level New York Center
08:45PM 40.1214 -74.1567 226° Southwest  Level Estimated
08:45PM 40.3131 -74.0861 203° Southwest 342 394 13,800  Level New York Center
08:46PM 40.2325 -74.1314 203° Southwest 359 413 15,900 1,860 Climbing New York Center
08:52PM 39.7670 -74.4980 203° Southwest 100 115 27,100 1,800 Climbing FlightAware
08:52PM 39.7530 -74.5160 225° Southwest 332 382 27,400 1,320 Climbing FlightAware
08:53PM 39.6720 -74.6180 224° Southwest 327 376 29,000 1,260 Climbing FlightAware
08:54PM 39.6550 -74.6470 233° Southwest 359 413 29,300 720 Climbing FlightAware
08:54PM 39.6190 -74.6960 226° Southwest 340 391 29,700 360 Climbing FlightAware
08:55PM 39.5950 -74.7320 229° Southwest 340 391 29,700 1,740 Level FlightAware
08:56PM 39.5390 -74.8020 224° Southwest 340 391 31,900 1,740 Climbing FlightAware
08:56PM 39.4820 -74.8750 225° Southwest 372 428 32,700 780 Climbing FlightAware
08:57PM 39.4640 -74.9010 228° Southwest 310 357 32,900 180 Climbing FlightAware
08:57PM 39.4340 -74.9400 225° Southwest 310 357 32,900  Level FlightAware
08:58PM 39.3820 -75.0080 225° Southwest 310 357 32,900  Level FlightAware
08:59PM 39.3610 -75.0350 225° Southwest 310 357 32,900  Level FlightAware
09:00PM 39.3090 -75.1020 225° Southwest 310 357 32,900  Level FlightAware
09:00PM 39.2780 -75.1420 225° Southwest 310 357 32,900  Level FlightAware
09:01PM 39.2260 -75.2100 225° Southwest 310 357 32,900  Level FlightAware
09:03PM 39.1630 -75.2910 225° Southwest 310 357 32,900  Level FlightAware
09:03PM 39.1210 -75.3440 224° Southwest 310 357 32,900  Level FlightAware
09:04PM 39.0790 -75.3990 225° Southwest 310 357 32,900  Level FlightAware
09:05PM 39.0270 -75.4650 225° Southwest 310 357 32,900 1,140 Level FlightAware
09:07PM 38.6050 -75.4730 181° South 352 405 36,000 1,200 Climbing FlightAware
09:08PM 38.5400 -75.5130 206° Southwest 352 405 36,000  Level FlightAware
09:08PM 38.5100 -75.5320 206° Southwest 352 405 36,000  Level FlightAware
09:09PM 38.4660 -75.5600 206° Southwest 352 405 36,000  Level FlightAware
09:09PM 38.4210 -75.5870 205° Southwest 352 405 36,000  Level FlightAware
09:10PM 38.3610 -75.6250 206° Southwest 352 405 36,000  Level FlightAware
09:11PM 38.2860 -75.6710 206° Southwest 352 405 36,000  Level FlightAware
09:12PM 38.2450 -75.6970 206° Southwest 352 405 36,000  Level FlightAware
09:13PM 38.1710 -75.7430 206° Southwest 352 405 36,000  Level FlightAware
09:13PM 38.1110 -75.7800 206° Southwest 352 405 36,000  Level FlightAware
09:14PM 38.0650 -75.8080 206° Southwest 352 405 36,000  Level FlightAware
09:15PM 37.9900 -75.8550 206° Southwest 352 405 36,000  Level FlightAware
09:16PM 37.9290 -75.8920 206° Southwest 352 405 36,000  Level FlightAware
09:17PM 37.8680 -75.9300 206° Southwest 352 405 36,000  Level FlightAware
09:18PM 37.6508 -76.0431 206° Southwest 349 402 36,000  Level Washington Center
09:19PM 37.5653 -76.0922 204° Southwest 349 402 36,000 -60 Level Washington Center
09:20PM 37.4775 -76.1439 205° Southwest 349 402 35,900  Descending Washington Center
09:21PM 37.3853 -76.1903 202° Southwest 344 396 36,000 60 Climbing Washington Center
09:22PM 37.2956 -76.2444 206° Southwest 349 402 36,100  Climbing Washington Center
09:23PM 37.2056 -76.2933 203° Southwest 354 407 36,100  Level Washington Center
09:24PM 37.1156 -76.3444 204° Southwest 359 413 36,100 -60 Level Washington Center
09:25PM 37.0253 -76.3958 204° Southwest 359 413 36,000 -60 Descending Washington Center
09:26PM 36.9353 -76.4469 204° Southwest 359 413 36,000  Level Washington Center
09:27PM 36.8453 -76.5003 205° Southwest 359 413 36,000  Level Washington Center
09:28PM 36.7553 -76.5536 205° Southwest 359 413 36,100  Climbing Washington Center
09:29PM 36.6650 -76.6094 206° Southwest 359 413 36,000 -60 Descending Washington Center
09:30PM 36.5728 -76.6600 204° Southwest 365 420 36,000  Level Washington Center
09:31PM 36.4806 -76.7106 204° Southwest 365 420 36,000  Level Washington Center
09:32PM 36.3925 -76.7583 204° Southwest 360 414 36,000  Level Washington Center
09:33PM 36.3042 -76.8111 206° Southwest 360 414 36,000  Level Washington Center
09:34PM 36.2119 -76.8586 203° Southwest 360 414 36,000  Level Washington Center
09:35PM 36.1258 -76.9086 205° Southwest 360 414 36,000  Level Washington Center
09:36PM 36.0356 -76.9586 204° Southwest 360 414 36,000  Level Washington Center
09:37PM 35.9433 -77.0083 204° Southwest 360 414 36,000  Level Washington Center
09:38PM 35.8528 -77.0578 204° Southwest 360 414 36,000 60 Level Washington Center
09:39PM 35.7625 -77.1047 203° Southwest 360 414 36,200 420 Climbing Washington Center
09:40PM 35.6597 -77.1439 197° South 360 414 36,900 660 Climbing Washington Center
09:41PM 35.5592 -77.1803 196° South 360 414 37,600 540 Climbing Washington Center
09:42PM 35.4628 -77.2164 197° South 366 421 38,000 180 Climbing Washington Center
09:43PM 35.3683 -77.2528 197° South 366 421 38,000  Level Washington Center
09:44PM 35.2697 -77.2889 197° South 366 421 38,000  Level Washington Center
09:45PM 35.1711 -77.3275 198° South 366 421 38,000  Level Washington Center
09:46PM 35.0747 -77.3636 197° South 366 421 38,000  Level Washington Center
09:47PM 34.9781 -77.3994 197° South 366 421 38,000  Level Washington Center
09:48PM 34.8775 -77.4325 195° South 366 421 38,100  Climbing Washington Center
09:49PM 34.7831 -77.4708 198° South 366 421 38,000 -60 Descending Washington Center
09:50PM 34.6864 -77.5067 197° South 366 421 38,000  Level Washington Center
09:51PM 34.5900 -77.5422 197° South 366 421 38,000  Level Washington Center
09:52PM 34.4933 -77.5778 197° South 366 421 38,000  Level Washington Center
09:53PM 34.4072 -77.6133 199° South 366 421 38,000  Level Washington Center
09:54PM 34.3106 -77.6461 196° South 366 421 38,000  Level Washington Center
09:55PM 34.2142 -77.6789 196° South 366 421 38,000  Level Washington Center
09:56PM 34.1175 -77.7142 197° South 366 421 38,000  Level Washington Center
09:57PM 34.0008 -77.7553 196° South 367 422 38,000  Level Jacksonville Center
09:58PM 33.9044 -77.7908 197° South 361 415 38,000  Level Jacksonville Center
09:59PM 33.8078 -77.8264 197° South 361 415 38,000  Level Jacksonville Center
10:00PM 33.7111 -77.8594 196° South 361 415 38,000  Level Jacksonville Center
10:01PM 33.6225 -77.8919 197° South 361 415 38,000  Level Jacksonville Center
10:02PM 33.5239 -77.9275 197° South 366 421 38,000  Level Jacksonville Center
10:03PM 33.4250 -77.9628 197° South 371 427 38,000  Level Jacksonville Center
10:04PM 33.3283 -77.9956 196° South 371 427 38,000  Level Jacksonville Center
10:05PM 33.2317 -78.0331 198° South 371 427 38,000  Level Jacksonville Center
10:06PM 33.1347 -78.0656 196° South 371 427 38,000  Level Jacksonville Center
10:07PM 33.0358 -78.0983 196° South 371 427 38,000  Level Jacksonville Center
10:08PM 32.9392 -78.1356 198° South 371 427 38,000  Level Jacksonville Center
10:09PM 32.8403 -78.1681 195° South 376 433 38,000  Level Jacksonville Center
10:10PM 32.7392 -78.2028 196° South 376 433 38,000  Level Jacksonville Center
10:11PM 32.6425 -78.2375 197° South 376 433 38,000  Level Jacksonville Center
10:12PM 32.5436 -78.2722 196° South 376 433 38,000  Level Jacksonville Center
10:13PM 32.4425 -78.3069 196° South 371 427 38,000  Level Jacksonville Center
10:14PM 32.3314 -78.3469 197° South 371 427 38,000  Level Jacksonville Center
10:15PM 32.2325 -78.3836 197° South 377 434 38,000  Level Jacksonville Center
10:16PM 32.1292 -78.4181 196° South 377 434 38,000  Level Jacksonville Center
10:17PM 32.0303 -78.4525 196° South 377 434 38,000  Level Jacksonville Center
10:18PM 31.9292 -78.4892 197° South 377 434 38,000  Level Jacksonville Center
10:19PM 31.8303 -78.5208 195° South 377 434 38,000  Level Jacksonville Center
10:20PM 31.7292 -78.5572 197° South 372 428 38,000  Level Jacksonville Center
10:21PM 31.6300 -78.5911 196° South 372 428 38,000  Level Jacksonville Center
10:22PM 31.5308 -78.6225 195° South 377 434 38,000  Level Jacksonville Center
10:23PM 31.4300 -78.6589 197° South 384 442 38,000  Level Jacksonville Center
10:24PM 31.3328 -78.6922 196° South 371 427 38,000  Level Jacksonville Center
10:25PM 31.2278 -78.7311 198° South 382 440 38,000  Level Jacksonville Center
10:26PM 31.1325 -78.7547 192° South 376 433 38,000  Level Jacksonville Center
10:27PM 31.0294 -78.7956 199° South 376 433 38,000  Level Jacksonville Center
10:28PM 30.9383 -78.8239 195° South 376 433 38,000  Level Jacksonville Center
10:29PM 30.8414 -78.8569 196° South 376 433 38,000  Level Jacksonville Center
10:30PM 30.7422 -78.8903 196° South 376 433 38,000  Level Jacksonville Center
10:31PM 30.6389 -78.9236 196° South 382 440 38,000  Level Jacksonville Center
10:31PM 30.5567 -78.9508 196° South 376 433 38,000  Level Miami Center
10:32PM 30.4647 -78.9825 197° South 376 433 38,000  Level Miami Center
10:33PM 30.3597 -79.0214 198° South 381 438 38,000  Level Miami Center
10:34PM 30.2675 -79.0628 201° Southwest 381 438 38,000  Level Miami Center
10:35PM 30.1689 -79.1039 200° South 375 432 38,000  Level Miami Center
10:36PM 30.0764 -79.1450 201° Southwest 375 432 38,000  Level Miami Center
10:37PM 29.9858 -79.2031 209° Southwest 370 426 38,000  Level Miami Center
10:38PM 29.8872 -79.2367 196° South 370 426 38,000  Level Miami Center
10:39PM 29.7867 -79.2753 198° South 370 426 38,100  Climbing Miami Center
10:40PM 29.7083 -79.3403 216° Southwest 368 423 38,000 -120 Descending Miami Center
10:41PM 29.6339 -79.4222 224° Southwest 358 412 37,900 -600 Descending Miami Center
10:42PM 29.5594 -79.4967 221° Southwest 363 418 36,900 -960 Descending Miami Center
10:43PM 29.4808 -79.5733 220° Southwest 363 418 36,000 -960 Descending Miami Center
10:44PM 29.4044 -79.6525 222° Southwest 368 423 35,000 -1,680 Descending Miami Center
10:45PM 29.3275 -79.7339 223° Southwest 373 429 32,700 -2,580 Descending Miami Center
10:46PM 29.2406 -79.8125 218° Southwest 384 442 29,800 -2,760 Descending Miami Center
10:47PM 29.1597 -79.8911 220° Southwest 390 449 27,300 -2,460 Descending Miami Center
10:48PM 29.0786 -79.9742 222° Southwest 390 449 24,900 -2,460 Descending Miami Center
10:49PM 28.9975 -80.0575 222° Southwest 395 455 22,500 -2,400 Descending Miami Center
10:50PM 28.9286 -80.1456 228° Southwest 395 455 20,200 -2,400 Descending Miami Center
10:52PM 28.8500 -80.3667 248° West 358 412 15,200 -2,040 Descending Orlando TRACON
10:53PM 28.8333 -80.4667 259° West 347 399 14,000 -900 Descending Orlando TRACON
10:54PM 28.7833 -80.5667 240° Southwest 350 403 13,500 -1,080 Descending Orlando TRACON
10:55PM 28.7333 -80.6500 236° Southwest 330 380 12,000 -1,500 Descending Orlando TRACON
10:56PM 28.6667 -80.7333 228° Southwest 318 366 10,500 -1,320 Descending Orlando TRACON
10:57PM 28.6167 -80.8000 229° Southwest 285 328 9,300 -1,500 Descending Orlando TRACON
10:59PM 28.5667 -80.8833 236° Southwest 289 333 7,300 -1,560 Descending Orlando TRACON
11:00PM 28.5167 -80.9500 230° Southwest 288 331 6,100 -1,020 Descending Orlando TRACON
11:01PM 28.4667 -81.0333 236° Southwest 293 337 5,300 -900 Descending Orlando TRACON
11:02PM 28.4000 -81.1000 221° Southwest 259 298 4,200 -960 Descending Orlando TRACON
11:03PM 28.3667 -81.1667 240° Southwest 246 283 3,300 -900 Descending Orlando TRACON
11:04PM 28.3333 -81.2333 240° Southwest 224 258 2,500 -900 Descending Orlando TRACON
11:05PM 28.3333 -81.3000 270° West 201 231 1,600 -600 Descending Orlando TRACON
11:06PM 28.3667 -81.3167 336° Northwest 129 148 1,300 -600 Descending Orlando TRACON
11:07PM 28.4000 -81.3333 336° Northwest 129 148 400 -840 Descending Orlando TRACON